Dahlonega, GA (30533)

3:14 PM EST on December 06, 2016 (GMT -0500)
Ridgeway Road | | Change Station

Elev 1519 ft 34.50 °N, 84.03 °W | Updated 8 minutes ago

Overcast
Overcast
50.5 °F
Feels Like 50.5 °F
N
0.0
Wind Variable Wind from SE

Today
High -- | Low -- °F
--% Chance of Precip.
Yesterday
High -- | Low -- °F
Precip. -- in
Pressure 29.78 in
Visibility 8.0 miles
Clouds Overcast 500 ft
Dew Point 50 °F
Humidity 99%
Rainfall 0.68 in
Snow Depth Not available.
7:29 AM 5:25 PM
Waxing Crescent, 44% visible
SPECI KGVL 062002Z AUTO 10004KT 8SM OVC005 09/09 A2978 RMK AO2 T00940089
Pressure 29.78 in
Visibility 8.0 miles
Clouds Overcast 500 ft
Dew Point 50 °F
Humidity 99%
Rainfall 0.68 in
Snow Depth Not available.
7:29 AM 5:25 PM
Waxing Crescent, 44% visible
SPECI KGVL 062002Z AUTO 10004KT 8SM OVC005 09/09 A2978 RMK AO2 T00940089

10-Day Weather Forecast

Almanac

Astronomy

Dec. 06, 2016 Rise Set
Actual Time
Civil Twilight
Nautical Twilight
Astronomical Twilight
Moon
Length of Visible Light
Length of Day
Tomorrow will be .
, % of the Moon is Illuminated

Today's Extremes

State Highs State Lows

Community

WunderPhotos

Upload Photos

1,956,022 photos uploaded!

WunderBlog® & News

Nearby

Air Quality

  Air Quality AQ Index Pollutant
Not available.

Snow Depth

Station Depth Elevation

Earthquake Activity

City Distance Mag. Time & Date
Minimum magnitude displayed is 2.5.

Coastal Water Temperatures

Place Temperature

Stations

Nearby Weather Stations

Station Location Temp. Windchill Dew Point Humidity Wind Precip. Elev Updated Type
                   

Watches & Warnings

There are currently no watches in effect.